createdAt,value
2022-10-20T00:01:00.141Z,21.70
2022-10-20T00:03:27.134Z,21.70
2022-10-20T00:05:54.264Z,21.70
2022-10-20T00:08:21.102Z,21.70
2022-10-20T00:10:54.352Z,21.70
2022-10-20T00:13:20.987Z,21.70
2022-10-20T00:15:51.021Z,21.70
2022-10-20T00:18:17.559Z,21.70
2022-10-20T00:20:44.295Z,21.70
2022-10-20T00:23:10.952Z,21.70
2022-10-20T00:25:37.658Z,21.70
2022-10-20T00:28:04.439Z,21.70
2022-10-20T00:30:31.218Z,21.70
2022-10-20T00:32:57.714Z,21.70
2022-10-20T00:35:24.259Z,21.70
2022-10-20T00:37:50.753Z,21.70
2022-10-20T00:40:17.355Z,21.60
2022-10-20T00:42:44.388Z,21.70
2022-10-20T00:45:15.732Z,21.70
2022-10-20T00:50:14.039Z,21.70
2022-10-20T00:52:41.269Z,21.70
2022-10-20T00:55:08.808Z,21.70
2022-10-20T00:57:35.879Z,21.60
2022-10-20T01:00:04.430Z,21.60
2022-10-20T01:02:30.944Z,21.60
2022-10-20T01:04:57.461Z,21.60
2022-10-20T01:07:24.226Z,21.60
2022-10-20T01:09:50.725Z,21.60
2022-10-20T01:12:23.562Z,21.60
2022-10-20T01:14:57.450Z,21.60
2022-10-20T01:17:29.279Z,21.60
2022-10-20T01:20:13.522Z,21.60
2022-10-20T01:22:58.614Z,21.60
2022-10-20T01:25:28.211Z,21.60
2022-10-20T01:28:06.430Z,21.60
2022-10-20T01:30:34.005Z,21.60
2022-10-20T01:33:19.287Z,21.60
2022-10-20T01:35:58.860Z,21.60
2022-10-20T01:38:31.801Z,21.60
2022-10-20T01:41:21.347Z,21.60
2022-10-20T01:43:48.911Z,21.60
2022-10-20T01:46:16.805Z,21.60
2022-10-20T01:48:44.078Z,21.60
2022-10-20T01:51:10.594Z,21.60
2022-10-20T01:53:37.272Z,21.60
2022-10-20T01:56:04.538Z,21.60
2022-10-20T01:58:34.050Z,21.60
2022-10-20T02:01:11.251Z,21.60
2022-10-20T02:03:45.514Z,21.60
2022-10-20T02:06:27.097Z,21.60
2022-10-20T02:09:03.324Z,21.60
2022-10-20T02:11:46.445Z,21.60
2022-10-20T02:14:14.458Z,21.50
2022-10-20T02:16:45.091Z,21.60
2022-10-20T02:19:13.254Z,21.50
2022-10-20T02:21:39.768Z,21.50
2022-10-20T02:24:08.376Z,21.50
2022-10-20T02:26:36.334Z,21.50
2022-10-20T02:29:05.314Z,21.60
2022-10-20T02:31:31.902Z,21.50
2022-10-20T02:33:58.635Z,21.50
2022-10-20T02:36:26.861Z,21.50
2022-10-20T02:38:53.563Z,21.50
2022-10-20T02:41:20.211Z,21.50
2022-10-20T02:43:46.738Z,21.50
2022-10-20T02:46:13.300Z,21.50
2022-10-20T02:48:39.942Z,21.50
2022-10-20T02:51:06.663Z,21.50
2022-10-20T02:53:33.422Z,21.50
2022-10-20T02:56:00.002Z,21.50
2022-10-20T02:58:26.515Z,21.50
2022-10-20T03:00:53.043Z,21.50
2022-10-20T03:03:19.602Z,21.50
2022-10-20T03:05:47.460Z,21.50
2022-10-20T03:08:14.562Z,21.50
2022-10-20T03:10:42.671Z,21.50
2022-10-20T03:13:10.247Z,21.50
2022-10-20T03:15:37.227Z,21.50
2022-10-20T03:18:03.992Z,21.50
2022-10-20T03:20:30.567Z,21.50
2022-10-20T03:22:57.051Z,21.50
2022-10-20T03:25:23.567Z,21.50
2022-10-20T03:27:50.071Z,21.50
2022-10-20T03:30:16.650Z,21.50
2022-10-20T03:32:43.156Z,21.50
2022-10-20T03:35:09.799Z,21.50
2022-10-20T03:37:36.394Z,21.50
2022-10-20T03:40:02.933Z,21.50
2022-10-20T03:42:29.442Z,21.50
2022-10-20T03:44:55.938Z,21.50
2022-10-20T03:47:22.448Z,21.50
2022-10-20T03:49:48.931Z,21.50
2022-10-20T03:52:15.417Z,21.50
2022-10-20T03:54:41.916Z,21.50
2022-10-20T03:57:08.434Z,21.50
2022-10-20T03:59:35.030Z,21.40
2022-10-20T04:02:01.671Z,21.50
2022-10-20T04:04:28.209Z,21.50
2022-10-20T04:06:54.831Z,21.40
2022-10-20T04:09:21.499Z,21.40
2022-10-20T04:11:48.092Z,21.50
2022-10-20T04:14:14.658Z,21.40
2022-10-20T04:16:41.976Z,21.40
2022-10-20T04:19:08.592Z,21.40
2022-10-20T04:21:35.084Z,21.40
2022-10-20T04:24:01.614Z,21.40
2022-10-20T04:26:28.119Z,21.40
2022-10-20T04:28:55.824Z,21.40
2022-10-20T04:31:22.326Z,21.40
2022-10-20T04:33:48.843Z,21.40
2022-10-20T04:36:15.408Z,21.40
2022-10-20T04:38:41.939Z,21.50
2022-10-20T04:41:09.955Z,21.40
2022-10-20T04:43:36.451Z,21.40
2022-10-20T04:46:08.462Z,21.40
2022-10-20T04:48:35.985Z,21.40
2022-10-20T04:51:07.423Z,21.40
2022-10-20T04:53:34.018Z,21.30
2022-10-20T04:56:01.097Z,19.60
2022-10-20T04:58:27.675Z,18.80
2022-10-20T05:00:54.293Z,18.30
2022-10-20T05:03:20.935Z,18.00
2022-10-20T05:05:47.933Z,17.80
2022-10-20T05:08:14.560Z,17.70
2022-10-20T05:10:44.108Z,17.60
2022-10-20T05:13:10.790Z,17.50
2022-10-20T05:15:37.335Z,17.40
2022-10-20T05:18:03.993Z,18.40
2022-10-20T05:20:36.777Z,19.20
2022-10-20T05:23:07.916Z,19.80
2022-10-20T05:25:37.123Z,20.20
2022-10-20T05:28:04.109Z,20.40
2022-10-20T05:30:30.750Z,20.50
2022-10-20T05:32:57.290Z,20.50
2022-10-20T05:35:23.807Z,20.60
2022-10-20T05:37:50.303Z,20.70
2022-10-20T05:40:18.221Z,20.70
2022-10-20T05:42:44.764Z,20.70
2022-10-20T05:45:11.338Z,20.70
2022-10-20T05:47:37.997Z,20.70
2022-10-20T05:50:04.930Z,20.70
2022-10-20T05:52:31.515Z,20.80
2022-10-20T05:54:59.606Z,20.80
2022-10-20T05:57:26.253Z,20.80
2022-10-20T05:59:52.828Z,20.80
2022-10-20T06:02:19.372Z,20.80
2022-10-20T06:04:45.898Z,20.80
2022-10-20T06:07:15.759Z,20.80
2022-10-20T06:09:42.292Z,20.90
2022-10-20T06:14:40.494Z,20.90
2022-10-20T06:17:06.988Z,20.90
2022-10-20T06:19:33.601Z,20.90
2022-10-20T06:22:03.954Z,20.90
2022-10-20T06:24:33.555Z,20.90
2022-10-20T06:27:00.134Z,20.90
2022-10-20T06:29:26.795Z,20.90
2022-10-20T06:31:54.770Z,21.00
2022-10-20T06:34:22.402Z,20.90
2022-10-20T06:36:49.278Z,20.90
2022-10-20T06:39:17.912Z,21.00
2022-10-20T06:41:50.128Z,21.00
2022-10-20T06:44:20.254Z,20.90
2022-10-20T06:46:46.947Z,21.00
2022-10-20T06:49:14.089Z,20.90
2022-10-20T06:51:40.858Z,21.00
2022-10-20T06:54:07.812Z,21.00
2022-10-20T06:56:35.247Z,21.00
2022-10-20T06:59:01.799Z,21.00
2022-10-20T07:01:28.379Z,21.00
2022-10-20T07:03:56.046Z,21.00
2022-10-20T07:06:26.803Z,21.00
2022-10-20T07:08:56.555Z,21.00
2022-10-20T07:11:27.941Z,21.00
2022-10-20T07:13:54.883Z,21.00
2022-10-20T07:16:23.203Z,21.00
2022-10-20T07:18:49.786Z,21.00
2022-10-20T07:21:17.646Z,21.00
2022-10-20T07:23:44.603Z,21.00
2022-10-20T07:26:21.939Z,21.00
2022-10-20T07:28:54.817Z,21.00
2022-10-20T07:31:22.366Z,21.00
2022-10-20T07:34:13.294Z,21.00
2022-10-20T07:36:37.282Z,21.00
2022-10-20T07:39:04.939Z,21.10
2022-10-20T07:41:31.518Z,21.10
2022-10-20T07:43:58.201Z,21.00
2022-10-20T07:46:24.757Z,21.10
2022-10-20T07:48:51.575Z,21.10
2022-10-20T07:51:28.274Z,21.10
2022-10-20T07:53:59.681Z,21.10
2022-10-20T07:56:29.146Z,21.10
2022-10-20T07:58:55.927Z,21.10
2022-10-20T08:01:22.521Z,21.10
2022-10-20T08:03:49.069Z,21.10
2022-10-20T08:06:15.669Z,21.10
2022-10-20T08:08:42.236Z,21.10
2022-10-20T08:11:10.440Z,21.10
2022-10-20T08:13:39.417Z,21.10
2022-10-20T08:16:06.116Z,21.10
2022-10-20T08:21:14.303Z,21.10
2022-10-20T08:23:41.648Z,21.10
2022-10-20T08:26:10.744Z,21.10
2022-10-20T08:28:38.253Z,21.10
2022-10-20T08:31:06.167Z,21.10
2022-10-20T08:33:32.987Z,21.10
2022-10-20T08:36:06.869Z,21.10
2022-10-20T08:38:33.607Z,21.10
2022-10-20T08:41:01.064Z,21.20
2022-10-20T08:43:28.199Z,21.10
2022-10-20T08:45:54.742Z,21.10
2022-10-20T08:48:23.235Z,21.10
2022-10-20T08:50:51.277Z,21.10
2022-10-20T08:53:19.632Z,21.10
2022-10-20T08:55:46.325Z,21.10
2022-10-20T08:58:14.533Z,21.10
2022-10-20T09:00:41.692Z,21.10
2022-10-20T09:03:15.472Z,21.20
2022-10-20T09:05:43.321Z,21.10
2022-10-20T09:08:09.872Z,21.10
2022-10-20T09:10:36.489Z,21.20
2022-10-20T09:13:06.636Z,21.20
2022-10-20T09:15:33.595Z,21.20
2022-10-20T09:18:01.812Z,21.20
2022-10-20T09:20:31.753Z,21.20
2022-10-20T09:22:59.515Z,21.20
2022-10-20T09:25:27.856Z,21.20
2022-10-20T09:27:56.490Z,21.20
2022-10-20T09:30:25.816Z,21.20
2022-10-20T09:32:52.358Z,21.20
2022-10-20T09:35:23.814Z,21.20
2022-10-20T09:38:04.820Z,21.20
2022-10-20T09:40:31.571Z,21.20
2022-10-20T09:43:18.181Z,21.20
2022-10-20T09:45:50.599Z,21.20
2022-10-20T09:48:21.025Z,21.20
2022-10-20T09:50:49.895Z,21.20
2022-10-20T09:53:20.403Z,21.20
2022-10-20T09:55:48.098Z,21.20
2022-10-20T09:58:32.695Z,21.30
2022-10-20T10:01:06.923Z,21.20
2022-10-20T10:03:40.625Z,21.20
2022-10-20T10:06:26.024Z,21.20
2022-10-20T10:08:52.642Z,21.20
2022-10-20T10:11:20.275Z,21.30
2022-10-20T10:13:48.390Z,21.20
2022-10-20T10:16:16.955Z,21.20
2022-10-20T10:18:55.828Z,21.20
2022-10-20T10:21:22.573Z,21.20
2022-10-20T10:24:15.649Z,21.20
2022-10-20T10:26:46.612Z,21.30
2022-10-20T10:29:19.366Z,21.30
2022-10-20T10:31:49.879Z,21.30
2022-10-20T10:34:16.348Z,21.30
2022-10-20T10:36:43.040Z,21.30
2022-10-20T10:39:13.847Z,21.30
2022-10-20T10:41:41.549Z,21.30
2022-10-20T10:44:17.800Z,21.30
2022-10-20T10:46:54.541Z,21.30
2022-10-20T10:49:46.068Z,21.30
2022-10-20T10:52:29.682Z,21.30
2022-10-20T10:54:58.183Z,21.30
2022-10-20T10:57:31.255Z,21.30
2022-10-20T11:00:02.396Z,21.30
2022-10-20T11:02:55.248Z,21.30
2022-10-20T11:05:22.388Z,21.30
2022-10-20T11:07:58.708Z,21.30
2022-10-20T11:10:44.166Z,21.30
2022-10-20T11:13:32.173Z,21.30
2022-10-20T11:16:07.958Z,21.30
2022-10-20T11:18:45.563Z,21.30
2022-10-20T11:21:17.859Z,21.30
2022-10-20T11:23:59.904Z,21.30
2022-10-20T11:26:29.815Z,21.30
2022-10-20T11:28:57.662Z,21.30
2022-10-20T11:31:36.347Z,21.30
2022-10-20T11:34:10.389Z,21.30
2022-10-20T11:36:43.081Z,21.30
2022-10-20T11:39:17.423Z,21.30
2022-10-20T11:41:47.177Z,21.30
2022-10-20T11:44:15.912Z,21.30
2022-10-20T11:46:48.632Z,21.30
2022-10-20T11:49:15.266Z,21.30
2022-10-20T11:52:00.639Z,21.30
2022-10-20T11:54:40.583Z,21.30
2022-10-20T11:57:10.175Z,21.30
2022-10-20T11:59:42.863Z,21.30
2022-10-20T12:02:15.518Z,21.30
2022-10-20T12:04:45.072Z,21.40
2022-10-20T12:07:17.920Z,21.30
2022-10-20T12:09:52.287Z,21.30
2022-10-20T12:12:20.987Z,21.30
2022-10-20T12:14:55.875Z,21.40
2022-10-20T12:17:29.551Z,21.30
2022-10-20T12:20:14.852Z,21.30
2022-10-20T12:22:42.269Z,21.30
2022-10-20T12:25:08.744Z,21.30
2022-10-20T12:27:35.297Z,21.30
2022-10-20T12:30:03.747Z,21.40
2022-10-20T12:33:04.285Z,21.30
2022-10-20T12:35:50.804Z,21.30
2022-10-20T12:38:18.280Z,21.40
2022-10-20T12:40:58.465Z,21.40
2022-10-20T12:43:27.276Z,21.30
2022-10-20T12:45:57.106Z,21.30
2022-10-20T12:48:24.388Z,21.30
2022-10-20T12:50:51.364Z,21.30
2022-10-20T12:53:17.842Z,21.30
2022-10-20T12:55:46.212Z,21.30
2022-10-20T12:58:12.782Z,21.30
2022-10-20T13:00:39.328Z,21.30
2022-10-20T13:03:26.238Z,21.30
2022-10-20T13:05:52.806Z,21.40
2022-10-20T13:08:19.471Z,21.40
2022-10-20T13:10:46.378Z,21.30
2022-10-20T13:13:12.889Z,21.40
2022-10-20T13:15:42.435Z,21.30
2022-10-20T13:18:12.227Z,21.40
2022-10-20T13:20:45.957Z,21.40
2022-10-20T13:23:13.848Z,21.30
2022-10-20T13:25:43.639Z,21.30
2022-10-20T13:28:12.875Z,21.30
2022-10-20T13:30:58.215Z,21.30
2022-10-20T13:33:44.556Z,21.30
2022-10-20T13:36:19.405Z,21.30
2022-10-20T13:38:51.908Z,21.40
2022-10-20T13:41:22.953Z,21.40
2022-10-20T13:43:57.461Z,21.40
2022-10-20T13:46:40.022Z,21.30
2022-10-20T13:49:06.540Z,21.30
2022-10-20T13:51:37.806Z,21.40
2022-10-20T13:54:06.263Z,21.30
2022-10-20T13:56:35.327Z,21.30
2022-10-20T13:59:06.009Z,21.40
2022-10-20T14:01:34.518Z,21.30
2022-10-20T14:04:01.251Z,21.30
2022-10-20T14:06:28.067Z,21.30
2022-10-20T14:08:55.025Z,21.40
2022-10-20T14:11:21.673Z,21.30
2022-10-20T14:13:48.447Z,21.30
2022-10-20T14:16:17.765Z,21.30
2022-10-20T14:18:44.287Z,21.30
2022-10-20T14:21:15.584Z,21.40
2022-10-20T14:23:43.090Z,21.30
2022-10-20T14:26:14.456Z,21.40
2022-10-20T14:28:41.575Z,21.30
2022-10-20T14:31:09.475Z,21.30
2022-10-20T14:33:40.062Z,21.40
2022-10-20T14:36:07.099Z,21.40
2022-10-20T14:38:38.721Z,21.30
2022-10-20T14:41:06.681Z,21.30
2022-10-20T14:43:36.015Z,21.30
2022-10-20T14:46:03.408Z,21.30
2022-10-20T14:48:37.522Z,21.40
2022-10-20T14:51:24.279Z,21.30
2022-10-20T14:53:50.817Z,21.30
2022-10-20T14:56:23.282Z,21.40
2022-10-20T14:58:57.919Z,21.10
2022-10-20T15:01:28.158Z,20.70
2022-10-20T15:04:15.693Z,20.40
2022-10-20T15:06:43.259Z,20.20
2022-10-20T15:09:18.096Z,20.10
2022-10-20T15:11:44.760Z,20.10
2022-10-20T15:14:15.628Z,20.10
2022-10-20T15:16:46.361Z,20.40
2022-10-20T15:19:24.268Z,20.80
2022-10-20T15:21:57.728Z,21.00
2022-10-20T15:24:24.308Z,21.10
2022-10-20T15:26:50.843Z,21.20
2022-10-20T15:29:17.624Z,21.30
2022-10-20T15:31:44.181Z,21.30
2022-10-20T15:34:11.202Z,21.40
2022-10-20T15:36:41.949Z,21.40
2022-10-20T15:39:09.114Z,21.40
2022-10-20T15:41:36.579Z,21.40
2022-10-20T15:44:07.410Z,21.50
2022-10-20T15:46:33.924Z,21.50
2022-10-20T15:49:00.478Z,21.50
2022-10-20T15:51:28.334Z,21.70
2022-10-20T15:53:54.944Z,21.60
2022-10-20T15:56:21.495Z,21.60
2022-10-20T15:58:49.993Z,21.60
2022-10-20T16:01:17.149Z,21.70
2022-10-20T16:03:44.059Z,21.70
2022-10-20T16:06:13.356Z,21.70
2022-10-20T16:08:40.490Z,21.70
2022-10-20T16:11:07.053Z,21.80
2022-10-20T16:13:34.004Z,21.70
2022-10-20T16:16:00.782Z,21.70
2022-10-20T16:18:27.875Z,21.60
2022-10-20T16:20:57.215Z,21.10
2022-10-20T16:23:23.743Z,20.70
2022-10-20T16:25:50.328Z,20.50
2022-10-20T16:28:17.017Z,20.40
2022-10-20T16:30:43.551Z,20.20
2022-10-20T16:33:10.072Z,20.20
2022-10-20T16:35:43.125Z,20.10
2022-10-20T16:38:09.809Z,20.00
2022-10-20T16:40:36.349Z,20.10
2022-10-20T16:43:02.981Z,20.50
2022-10-20T16:45:29.482Z,20.70
2022-10-20T16:47:56.015Z,20.90
2022-10-20T16:50:22.524Z,21.00
2022-10-20T16:52:49.063Z,21.10
2022-10-20T16:55:15.582Z,21.20
2022-10-20T16:57:42.095Z,21.30
2022-10-20T17:00:08.928Z,21.50
2022-10-20T17:02:36.113Z,21.40
2022-10-20T17:05:05.327Z,21.30
2022-10-20T17:07:35.253Z,21.40
2022-10-20T17:10:02.059Z,21.30
2022-10-20T17:12:28.550Z,21.40
2022-10-20T17:14:55.079Z,21.40
2022-10-20T17:17:21.604Z,21.40
2022-10-20T17:19:48.111Z,21.40
2022-10-20T17:22:14.688Z,21.40
2022-10-20T17:24:41.296Z,21.40
2022-10-20T17:27:07.909Z,21.50
2022-10-20T17:29:34.509Z,21.50
2022-10-20T17:32:01.020Z,21.50
2022-10-20T17:34:27.539Z,21.50
2022-10-20T17:36:54.086Z,21.50
2022-10-20T17:39:22.073Z,21.50
2022-10-20T17:41:48.628Z,21.50
2022-10-20T17:44:15.193Z,21.50
2022-10-20T17:46:43.266Z,21.60
2022-10-20T17:49:09.773Z,21.60
2022-10-20T17:51:36.451Z,21.50
2022-10-20T17:54:03.645Z,21.50
2022-10-20T17:56:35.312Z,21.60
2022-10-20T17:59:03.849Z,21.60
2022-10-20T18:01:35.026Z,21.50
2022-10-20T18:04:03.293Z,21.50
2022-10-20T18:06:34.188Z,21.60
2022-10-20T18:09:02.537Z,21.60
2022-10-20T18:11:30.321Z,21.70
2022-10-20T18:13:59.248Z,21.70
2022-10-20T18:16:26.439Z,21.60
2022-10-20T18:18:54.613Z,21.60
2022-10-20T18:21:21.190Z,21.60
2022-10-20T18:23:48.330Z,21.50
2022-10-20T18:26:19.160Z,21.60
2022-10-20T18:28:48.289Z,21.60
2022-10-20T18:31:20.172Z,21.60
2022-10-20T18:33:46.861Z,21.50
2022-10-20T18:36:14.968Z,21.50
2022-10-20T18:38:42.303Z,21.50
2022-10-20T18:41:10.129Z,21.50
2022-10-20T18:43:36.938Z,21.60
2022-10-20T18:46:04.197Z,21.70
2022-10-20T18:48:31.296Z,21.60
2022-10-20T18:50:59.223Z,21.60
2022-10-20T18:53:26.685Z,21.70
2022-10-20T18:56:03.938Z,21.70
2022-10-20T18:58:31.682Z,21.70
2022-10-20T19:01:02.271Z,21.70
2022-10-20T19:03:31.443Z,21.70
2022-10-20T19:05:59.189Z,21.60
2022-10-20T19:08:25.804Z,21.70
2022-10-20T19:10:52.380Z,21.70
2022-10-20T19:13:18.880Z,21.70
2022-10-20T19:15:45.518Z,21.70
2022-10-20T19:18:12.030Z,21.70
2022-10-20T19:20:38.575Z,21.70
2022-10-20T19:23:05.111Z,21.70
2022-10-20T19:25:33.292Z,21.70
2022-10-20T19:27:59.815Z,21.70
2022-10-20T19:30:26.349Z,21.70
2022-10-20T19:32:54.803Z,21.70
2022-10-20T19:35:21.900Z,21.70
2022-10-20T19:37:48.535Z,21.70
2022-10-20T19:40:15.076Z,21.70
2022-10-20T19:42:41.608Z,21.70
2022-10-20T19:45:08.209Z,21.80
2022-10-20T19:47:35.837Z,21.70
2022-10-20T19:50:02.407Z,21.70
2022-10-20T19:52:28.961Z,21.80
2022-10-20T19:54:55.531Z,21.80
2022-10-20T19:57:22.167Z,21.80
2022-10-20T19:59:48.688Z,21.70
2022-10-20T20:02:15.184Z,21.80
2022-10-20T20:04:41.760Z,21.80
2022-10-20T20:07:08.356Z,21.80
2022-10-20T20:09:34.902Z,21.80
2022-10-20T20:12:01.472Z,21.80
2022-10-20T20:14:28.103Z,21.80
2022-10-20T20:16:54.663Z,21.80
2022-10-20T20:19:21.161Z,21.80
2022-10-20T20:21:47.738Z,21.80
2022-10-20T20:24:14.774Z,21.90
2022-10-20T20:26:41.406Z,21.80
2022-10-20T20:29:07.967Z,21.80
2022-10-20T20:31:34.547Z,21.80
2022-10-20T20:34:01.047Z,21.80
2022-10-20T20:36:28.137Z,21.90
2022-10-20T20:38:57.536Z,21.80
2022-10-20T20:41:26.013Z,21.80
2022-10-20T20:43:52.551Z,21.80
2022-10-20T20:46:19.998Z,21.80
2022-10-20T20:48:46.532Z,21.80
2022-10-20T20:51:13.717Z,21.80
2022-10-20T20:53:40.645Z,21.70
2022-10-20T20:56:08.953Z,21.80
2022-10-20T20:58:35.856Z,21.70
2022-10-20T21:01:07.011Z,21.80
2022-10-20T21:03:34.099Z,21.70
2022-10-20T21:06:04.406Z,21.70
2022-10-20T21:08:31.643Z,21.70
2022-10-20T21:11:03.499Z,21.70
2022-10-20T21:13:31.347Z,21.70
2022-10-20T21:16:06.626Z,21.70
2022-10-20T21:18:33.127Z,21.70
2022-10-20T21:21:05.705Z,21.70
2022-10-20T21:23:32.306Z,21.60
2022-10-20T21:25:58.863Z,21.60
2022-10-20T21:28:25.517Z,21.60
2022-10-20T21:30:52.149Z,21.60
2022-10-20T21:33:18.695Z,21.60
2022-10-20T21:35:45.255Z,21.60
2022-10-20T21:38:11.768Z,21.60
2022-10-20T21:40:38.263Z,21.60
2022-10-20T21:43:04.841Z,21.60
2022-10-20T21:45:33.397Z,21.60
2022-10-20T21:48:00.132Z,21.60
2022-10-20T21:50:26.753Z,21.60
2022-10-20T21:52:53.311Z,21.60
2022-10-20T21:55:20.043Z,21.60
2022-10-20T21:57:46.619Z,21.60
2022-10-20T22:00:13.238Z,21.60
2022-10-20T22:02:39.811Z,21.60
2022-10-20T22:05:06.502Z,21.60
2022-10-20T22:07:33.451Z,21.60
2022-10-20T22:10:00.044Z,21.60
2022-10-20T22:12:26.728Z,21.50
2022-10-20T22:14:53.279Z,21.60
2022-10-20T22:17:21.171Z,21.60
2022-10-20T22:19:49.766Z,21.60
2022-10-20T22:22:16.348Z,21.60
2022-10-20T22:24:43.015Z,21.50
2022-10-20T22:27:15.632Z,21.50
2022-10-20T22:29:54.072Z,21.50
2022-10-20T22:32:23.163Z,21.50
2022-10-20T22:34:49.672Z,21.50
2022-10-20T22:37:16.164Z,21.50
2022-10-20T22:39:42.672Z,21.50
2022-10-20T22:42:09.200Z,21.50
2022-10-20T22:44:35.724Z,21.50
2022-10-20T22:47:02.203Z,21.50
2022-10-20T22:49:28.711Z,21.50
2022-10-20T22:51:55.203Z,21.50
2022-10-20T22:54:21.868Z,21.50
2022-10-20T22:56:50.396Z,21.50
2022-10-20T22:59:16.884Z,21.50
2022-10-20T23:01:45.487Z,21.50
2022-10-20T23:04:12.660Z,21.50
2022-10-20T23:06:41.058Z,21.50
2022-10-20T23:09:07.828Z,21.40
2022-10-20T23:11:34.450Z,21.50
2022-10-20T23:14:00.990Z,21.50
2022-10-20T23:16:27.495Z,21.50
2022-10-20T23:18:53.994Z,21.50
2022-10-20T23:21:20.485Z,21.50
2022-10-20T23:23:47.009Z,21.50
2022-10-20T23:26:13.534Z,21.40
2022-10-20T23:28:40.137Z,21.50
2022-10-20T23:31:08.122Z,21.50
2022-10-20T23:33:34.838Z,21.50
2022-10-20T23:36:01.350Z,21.60
2022-10-20T23:38:27.857Z,21.40
2022-10-20T23:40:54.388Z,21.40
2022-10-20T23:43:20.973Z,21.50
2022-10-20T23:45:47.504Z,21.40
2022-10-20T23:48:14.029Z,21.40
2022-10-20T23:50:40.526Z,21.40
2022-10-20T23:53:07.070Z,21.40
2022-10-20T23:55:33.563Z,21.40
2022-10-20T23:58:00.127Z,21.40
